sensor_id;sensor_type;location;lat;lon;timestamp;temperature;humidity
31661;DHT22;18267;52.234;7.444;2024-01-25T00:00:19;9.50;99.90
31661;DHT22;18267;52.234;7.444;2024-01-25T00:02:45;9.40;99.90
31661;DHT22;18267;52.234;7.444;2024-01-25T00:05:10;9.40;99.90
31661;DHT22;18267;52.234;7.444;2024-01-25T00:07:47;9.40;99.90
31661;DHT22;18267;52.234;7.444;2024-01-25T00:10:14;9.30;99.90
31661;DHT22;18267;52.234;7.444;2024-01-25T00:12:40;9.30;99.90
31661;DHT22;18267;52.234;7.444;2024-01-25T00:15:06;9.40;99.90
31661;DHT22;18267;52.234;7.444;2024-01-25T00:17:32;9.50;99.90
31661;DHT22;18267;52.234;7.444;2024-01-25T00:19:57;9.40;99.90
31661;DHT22;18267;52.234;7.444;2024-01-25T00:22:23;9.30;99.90
31661;DHT22;18267;52.234;7.444;2024-01-25T00:24:48;9.20;99.90
31661;DHT22;18267;52.234;7.444;2024-01-25T00:27:14;9.30;99.90
31661;DHT22;18267;52.234;7.444;2024-01-25T00:29:39;9.20;99.90
31661;DHT22;18267;52.234;7.444;2024-01-25T00:32:05;9.20;99.90
31661;DHT22;18267;52.234;7.444;2024-01-25T00:34:31;9.20;99.90
31661;DHT22;18267;52.234;7.444;2024-01-25T00:36:56;9.20;99.90
31661;DHT22;18267;52.234;7.444;2024-01-25T00:39:22;9.30;99.90
31661;DHT22;18267;52.234;7.444;2024-01-25T00:41:51;9.40;99.90
31661;DHT22;18267;52.234;7.444;2024-01-25T00:44:17;9.30;99.90
31661;DHT22;18267;52.234;7.444;2024-01-25T00:46:43;9.30;99.90
31661;DHT22;18267;52.234;7.444;2024-01-25T00:49:08;9.30;99.90
31661;DHT22;18267;52.234;7.444;2024-01-25T00:51:36;9.30;99.90
31661;DHT22;18267;52.234;7.444;2024-01-25T00:54:02;9.20;99.90
31661;DHT22;18267;52.234;7.444;2024-01-25T00:56:28;9.30;99.90
31661;DHT22;18267;52.234;7.444;2024-01-25T00:58:54;9.20;99.90
31661;DHT22;18267;52.234;7.444;2024-01-25T01:01:21;9.20;99.90
31661;DHT22;18267;52.234;7.444;2024-01-25T01:03:48;9.20;99.90
31661;DHT22;18267;52.234;7.444;2024-01-25T01:06:19;9.20;99.90
31661;DHT22;18267;52.234;7.444;2024-01-25T01:08:46;9.20;99.90
31661;DHT22;18267;52.234;7.444;2024-01-25T01:11:11;9.30;99.90
31661;DHT22;18267;52.234;7.444;2024-01-25T01:13:37;9.20;99.90
31661;DHT22;18267;52.234;7.444;2024-01-25T01:16:02;9.20;99.90
31661;DHT22;18267;52.234;7.444;2024-01-25T01:18:28;9.30;99.90
31661;DHT22;18267;52.234;7.444;2024-01-25T01:20:54;9.40;99.90
31661;DHT22;18267;52.234;7.444;2024-01-25T01:23:19;9.30;99.90
31661;DHT22;18267;52.234;7.444;2024-01-25T01:25:45;9.30;99.90
31661;DHT22;18267;52.234;7.444;2024-01-25T01:28:10;9.30;99.90
31661;DHT22;18267;52.234;7.444;2024-01-25T01:30:36;9.30;99.90
31661;DHT22;18267;52.234;7.444;2024-01-25T01:33:02;9.20;99.90
31661;DHT22;18267;52.234;7.444;2024-01-25T01:35:27;9.20;99.90
31661;DHT22;18267;52.234;7.444;2024-01-25T01:37:53;9.10;99.90
31661;DHT22;18267;52.234;7.444;2024-01-25T01:40:18;9.20;99.90
31661;DHT22;18267;52.234;7.444;2024-01-25T01:42:44;9.10;99.90
31661;DHT22;18267;52.234;7.444;2024-01-25T01:45:11;9.20;99.90
31661;DHT22;18267;52.234;7.444;2024-01-25T01:47:37;9.20;99.90
31661;DHT22;18267;52.234;7.444;2024-01-25T01:50:03;9.20;99.90
31661;DHT22;18267;52.234;7.444;2024-01-25T01:52:30;9.10;99.90
31661;DHT22;18267;52.234;7.444;2024-01-25T01:54:56;9.10;99.90
31661;DHT22;18267;52.234;7.444;2024-01-25T01:57:22;9.00;99.90
31661;DHT22;18267;52.234;7.444;2024-01-25T01:59:47;9.00;99.90
31661;DHT22;18267;52.234;7.444;2024-01-25T02:02:14;9.00;99.90
31661;DHT22;18267;52.234;7.444;2024-01-25T02:04:40;8.90;99.90
31661;DHT22;18267;52.234;7.444;2024-01-25T02:07:05;8.90;99.90
31661;DHT22;18267;52.234;7.444;2024-01-25T02:09:32;8.80;99.90
31661;DHT22;18267;52.234;7.444;2024-01-25T02:12:04;8.80;99.90
31661;DHT22;18267;52.234;7.444;2024-01-25T02:14:31;8.70;99.90
31661;DHT22;18267;52.234;7.444;2024-01-25T02:16:56;8.70;99.90
31661;DHT22;18267;52.234;7.444;2024-01-25T02:19:22;8.70;99.90
31661;DHT22;18267;52.234;7.444;2024-01-25T02:21:49;8.60;99.90
31661;DHT22;18267;52.234;7.444;2024-01-25T02:24:14;8.60;99.90
31661;DHT22;18267;52.234;7.444;2024-01-25T02:26:40;8.60;99.90
31661;DHT22;18267;52.234;7.444;2024-01-25T02:29:06;8.60;99.90
31661;DHT22;18267;52.234;7.444;2024-01-25T02:31:33;8.60;99.90
31661;DHT22;18267;52.234;7.444;2024-01-25T02:33:59;8.50;99.90
31661;DHT22;18267;52.234;7.444;2024-01-25T02:36:24;8.60;99.90
31661;DHT22;18267;52.234;7.444;2024-01-25T02:38:50;8.70;99.90
31661;DHT22;18267;52.234;7.444;2024-01-25T02:41:15;8.60;99.90
31661;DHT22;18267;52.234;7.444;2024-01-25T02:43:41;8.60;99.90
31661;DHT22;18267;52.234;7.444;2024-01-25T02:46:07;8.70;99.90
31661;DHT22;18267;52.234;7.444;2024-01-25T02:48:33;8.70;99.90
31661;DHT22;18267;52.234;7.444;2024-01-25T02:50:58;8.70;99.90
31661;DHT22;18267;52.234;7.444;2024-01-25T02:53:24;8.70;99.90
31661;DHT22;18267;52.234;7.444;2024-01-25T02:55:49;8.70;99.90
31661;DHT22;18267;52.234;7.444;2024-01-25T02:58:15;8.70;99.90
31661;DHT22;18267;52.234;7.444;2024-01-25T03:00:40;8.60;99.90
31661;DHT22;18267;52.234;7.444;2024-01-25T03:03:06;8.60;99.90
31661;DHT22;18267;52.234;7.444;2024-01-25T03:05:31;8.70;99.90
31661;DHT22;18267;52.234;7.444;2024-01-25T03:07:57;8.60;99.90
31661;DHT22;18267;52.234;7.444;2024-01-25T03:10:23;8.60;99.90
31661;DHT22;18267;52.234;7.444;2024-01-25T03:12:49;8.60;99.90
31661;DHT22;18267;52.234;7.444;2024-01-25T03:15:14;8.60;99.90
31661;DHT22;18267;52.234;7.444;2024-01-25T03:17:40;8.50;99.90
31661;DHT22;18267;52.234;7.444;2024-01-25T03:20:06;8.40;99.90
31661;DHT22;18267;52.234;7.444;2024-01-25T03:22:32;8.40;99.90
31661;DHT22;18267;52.234;7.444;2024-01-25T03:24:57;8.30;99.90
31661;DHT22;18267;52.234;7.444;2024-01-25T03:27:23;8.30;99.90
31661;DHT22;18267;52.234;7.444;2024-01-25T03:29:49;8.30;99.90
31661;DHT22;18267;52.234;7.444;2024-01-25T03:32:14;8.40;99.90
31661;DHT22;18267;52.234;7.444;2024-01-25T03:34:40;8.40;99.90
31661;DHT22;18267;52.234;7.444;2024-01-25T03:37:05;8.30;99.90
31661;DHT22;18267;52.234;7.444;2024-01-25T03:39:31;8.20;99.90
31661;DHT22;18267;52.234;7.444;2024-01-25T03:41:56;8.10;99.90
31661;DHT22;18267;52.234;7.444;2024-01-25T03:44:22;8.10;99.90
31661;DHT22;18267;52.234;7.444;2024-01-25T03:46:47;8.10;99.90
31661;DHT22;18267;52.234;7.444;2024-01-25T03:49:13;8.10;99.90
31661;DHT22;18267;52.234;7.444;2024-01-25T03:51:38;8.10;99.90
31661;DHT22;18267;52.234;7.444;2024-01-25T03:54:04;8.10;99.90
31661;DHT22;18267;52.234;7.444;2024-01-25T03:56:29;8.20;99.90
31661;DHT22;18267;52.234;7.444;2024-01-25T03:58:55;8.10;99.90
31661;DHT22;18267;52.234;7.444;2024-01-25T04:01:21;8.00;99.90
31661;DHT22;18267;52.234;7.444;2024-01-25T04:03:46;8.00;99.90
31661;DHT22;18267;52.234;7.444;2024-01-25T04:06:12;8.00;99.90
31661;DHT22;18267;52.234;7.444;2024-01-25T04:08:37;7.90;99.90
31661;DHT22;18267;52.234;7.444;2024-01-25T04:11:03;7.80;99.90
31661;DHT22;18267;52.234;7.444;2024-01-25T04:13:28;7.90;99.90
31661;DHT22;18267;52.234;7.444;2024-01-25T04:15:54;7.90;99.90
31661;DHT22;18267;52.234;7.444;2024-01-25T04:18:19;7.90;99.90
31661;DHT22;18267;52.234;7.444;2024-01-25T04:20:45;8.00;99.90
31661;DHT22;18267;52.234;7.444;2024-01-25T04:23:12;8.00;99.90
31661;DHT22;18267;52.234;7.444;2024-01-25T04:25:37;7.90;99.90
31661;DHT22;18267;52.234;7.444;2024-01-25T04:28:03;7.90;99.90
31661;DHT22;18267;52.234;7.444;2024-01-25T04:30:29;7.90;99.90
31661;DHT22;18267;52.234;7.444;2024-01-25T04:32:56;7.80;99.90
31661;DHT22;18267;52.234;7.444;2024-01-25T04:35:21;7.80;99.90
31661;DHT22;18267;52.234;7.444;2024-01-25T04:37:47;7.80;99.90
31661;DHT22;18267;52.234;7.444;2024-01-25T04:40:12;7.80;99.90
31661;DHT22;18267;52.234;7.444;2024-01-25T04:42:38;7.70;99.90
31661;DHT22;18267;52.234;7.444;2024-01-25T04:45:04;7.70;99.90
31661;DHT22;18267;52.234;7.444;2024-01-25T04:47:29;7.70;99.90
31661;DHT22;18267;52.234;7.444;2024-01-25T04:49:56;7.70;99.90
31661;DHT22;18267;52.234;7.444;2024-01-25T04:52:21;7.80;99.90
31661;DHT22;18267;52.234;7.444;2024-01-25T04:54:47;7.80;99.90
31661;DHT22;18267;52.234;7.444;2024-01-25T04:57:12;7.80;99.90
31661;DHT22;18267;52.234;7.444;2024-01-25T04:59:38;7.90;99.90
31661;DHT22;18267;52.234;7.444;2024-01-25T05:02:04;7.80;99.90
31661;DHT22;18267;52.234;7.444;2024-01-25T05:04:29;7.80;99.90
31661;DHT22;18267;52.234;7.444;2024-01-25T05:06:57;7.70;99.90
31661;DHT22;18267;52.234;7.444;2024-01-25T05:09:22;7.80;99.90
31661;DHT22;18267;52.234;7.444;2024-01-25T05:11:48;7.70;99.90
31661;DHT22;18267;52.234;7.444;2024-01-25T05:14:13;7.70;99.90
31661;DHT22;18267;52.234;7.444;2024-01-25T05:16:39;7.60;99.90
31661;DHT22;18267;52.234;7.444;2024-01-25T05:19:05;7.60;99.90
31661;DHT22;18267;52.234;7.444;2024-01-25T05:21:30;7.60;99.90
31661;DHT22;18267;52.234;7.444;2024-01-25T05:23:56;7.60;99.90
31661;DHT22;18267;52.234;7.444;2024-01-25T05:26:22;7.60;99.90
31661;DHT22;18267;52.234;7.444;2024-01-25T05:28:47;7.50;99.90
31661;DHT22;18267;52.234;7.444;2024-01-25T05:31:13;7.40;99.90
31661;DHT22;18267;52.234;7.444;2024-01-25T05:33:39;7.50;99.90
31661;DHT22;18267;52.234;7.444;2024-01-25T05:36:05;7.40;99.90
31661;DHT22;18267;52.234;7.444;2024-01-25T05:38:31;7.40;99.90
31661;DHT22;18267;52.234;7.444;2024-01-25T05:40:57;7.30;99.90
31661;DHT22;18267;52.234;7.444;2024-01-25T05:43:23;7.30;99.90
31661;DHT22;18267;52.234;7.444;2024-01-25T05:45:48;7.30;99.90
31661;DHT22;18267;52.234;7.444;2024-01-25T05:48:14;7.30;99.90
31661;DHT22;18267;52.234;7.444;2024-01-25T05:50:40;7.30;99.90
31661;DHT22;18267;52.234;7.444;2024-01-25T05:53:06;7.30;99.90
31661;DHT22;18267;52.234;7.444;2024-01-25T05:55:31;7.30;99.90
31661;DHT22;18267;52.234;7.444;2024-01-25T05:57:57;7.20;99.90
31661;DHT22;18267;52.234;7.444;2024-01-25T06:00:22;7.20;99.90
31661;DHT22;18267;52.234;7.444;2024-01-25T06:02:48;7.30;99.90
31661;DHT22;18267;52.234;7.444;2024-01-25T06:05:14;7.40;99.90
31661;DHT22;18267;52.234;7.444;2024-01-25T06:07:39;7.40;99.90
31661;DHT22;18267;52.234;7.444;2024-01-25T06:10:06;7.20;99.90
31661;DHT22;18267;52.234;7.444;2024-01-25T06:12:32;7.30;99.90
31661;DHT22;18267;52.234;7.444;2024-01-25T06:14:57;7.30;99.90
31661;DHT22;18267;52.234;7.444;2024-01-25T06:17:23;7.20;99.90
31661;DHT22;18267;52.234;7.444;2024-01-25T06:19:48;7.20;99.90
31661;DHT22;18267;52.234;7.444;2024-01-25T06:22:14;7.10;99.90
31661;DHT22;18267;52.234;7.444;2024-01-25T06:24:39;7.20;99.90
31661;DHT22;18267;52.234;7.444;2024-01-25T06:27:05;7.30;99.90
31661;DHT22;18267;52.234;7.444;2024-01-25T06:29:31;7.30;99.90
31661;DHT22;18267;52.234;7.444;2024-01-25T06:31:56;7.40;99.90
31661;DHT22;18267;52.234;7.444;2024-01-25T06:34:21;7.30;99.90
31661;DHT22;18267;52.234;7.444;2024-01-25T06:36:47;7.30;99.90
31661;DHT22;18267;52.234;7.444;2024-01-25T06:39:13;7.20;99.90
31661;DHT22;18267;52.234;7.444;2024-01-25T06:41:38;7.20;99.90
31661;DHT22;18267;52.234;7.444;2024-01-25T06:44:04;7.20;99.90
31661;DHT22;18267;52.234;7.444;2024-01-25T06:46:29;7.10;99.90
31661;DHT22;18267;52.234;7.444;2024-01-25T06:48:55;7.10;99.90
31661;DHT22;18267;52.234;7.444;2024-01-25T06:51:20;7.00;99.90
31661;DHT22;18267;52.234;7.444;2024-01-25T06:53:46;7.00;99.90
31661;DHT22;18267;52.234;7.444;2024-01-25T06:56:12;6.90;99.90
31661;DHT22;18267;52.234;7.444;2024-01-25T06:58:37;6.80;99.90
31661;DHT22;18267;52.234;7.444;2024-01-25T07:01:03;6.90;99.90
31661;DHT22;18267;52.234;7.444;2024-01-25T07:03:30;6.80;99.90
31661;DHT22;18267;52.234;7.444;2024-01-25T07:05:55;6.90;99.90
31661;DHT22;18267;52.234;7.444;2024-01-25T07:08:22;6.80;99.90
31661;DHT22;18267;52.234;7.444;2024-01-25T07:10:49;6.80;99.90
31661;DHT22;18267;52.234;7.444;2024-01-25T07:13:15;6.80;99.90
31661;DHT22;18267;52.234;7.444;2024-01-25T07:15:41;6.90;99.90
31661;DHT22;18267;52.234;7.444;2024-01-25T07:18:06;6.90;99.90
31661;DHT22;18267;52.234;7.444;2024-01-25T07:20:32;6.90;99.90
31661;DHT22;18267;52.234;7.444;2024-01-25T07:22:57;6.90;99.90
31661;DHT22;18267;52.234;7.444;2024-01-25T07:25:23;6.90;99.90
31661;DHT22;18267;52.234;7.444;2024-01-25T07:27:49;6.90;99.90
31661;DHT22;18267;52.234;7.444;2024-01-25T07:30:15;6.90;99.90
31661;DHT22;18267;52.234;7.444;2024-01-25T07:32:41;6.90;99.90
31661;DHT22;18267;52.234;7.444;2024-01-25T07:35:08;6.80;99.90
31661;DHT22;18267;52.234;7.444;2024-01-25T07:37:35;6.80;99.90
31661;DHT22;18267;52.234;7.444;2024-01-25T07:40:00;6.80;99.90
31661;DHT22;18267;52.234;7.444;2024-01-25T07:42:26;6.80;99.90
31661;DHT22;18267;52.234;7.444;2024-01-25T07:44:52;6.90;99.90
31661;DHT22;18267;52.234;7.444;2024-01-25T07:47:17;6.80;99.90
31661;DHT22;18267;52.234;7.444;2024-01-25T07:49:43;6.90;99.90
31661;DHT22;18267;52.234;7.444;2024-01-25T07:52:09;6.90;99.90
31661;DHT22;18267;52.234;7.444;2024-01-25T07:54:35;6.90;99.90
31661;DHT22;18267;52.234;7.444;2024-01-25T07:57:00;6.90;99.90
31661;DHT22;18267;52.234;7.444;2024-01-25T07:59:26;7.10;99.90
31661;DHT22;18267;52.234;7.444;2024-01-25T08:01:51;7.10;99.90
31661;DHT22;18267;52.234;7.444;2024-01-25T08:04:17;7.00;99.90
31661;DHT22;18267;52.234;7.444;2024-01-25T08:06:42;7.10;99.90
31661;DHT22;18267;52.234;7.444;2024-01-25T08:09:08;7.10;99.90
31661;DHT22;18267;52.234;7.444;2024-01-25T08:11:34;7.10;99.90
31661;DHT22;18267;52.234;7.444;2024-01-25T08:14:00;7.20;99.90
31661;DHT22;18267;52.234;7.444;2024-01-25T08:16:26;7.20;99.90
31661;DHT22;18267;52.234;7.444;2024-01-25T08:18:51;7.30;99.90
31661;DHT22;18267;52.234;7.444;2024-01-25T08:21:17;7.20;99.90
31661;DHT22;18267;52.234;7.444;2024-01-25T08:23:43;7.10;99.90
31661;DHT22;18267;52.234;7.444;2024-01-25T08:26:08;7.10;99.90
31661;DHT22;18267;52.234;7.444;2024-01-25T08:28:41;7.30;99.90
31661;DHT22;18267;52.234;7.444;2024-01-25T08:31:09;7.30;99.90
31661;DHT22;18267;52.234;7.444;2024-01-25T08:33:35;7.30;99.90
31661;DHT22;18267;52.234;7.444;2024-01-25T08:36:01;7.30;99.90
31661;DHT22;18267;52.234;7.444;2024-01-25T08:38:27;7.20;99.90
31661;DHT22;18267;52.234;7.444;2024-01-25T08:40:53;7.20;99.90
31661;DHT22;18267;52.234;7.444;2024-01-25T08:43:19;7.30;99.90
31661;DHT22;18267;52.234;7.444;2024-01-25T08:45:44;7.40;99.90
31661;DHT22;18267;52.234;7.444;2024-01-25T08:48:10;7.30;99.90
31661;DHT22;18267;52.234;7.444;2024-01-25T08:50:36;7.50;99.90
31661;DHT22;18267;52.234;7.444;2024-01-25T08:53:02;7.60;99.90
31661;DHT22;18267;52.234;7.444;2024-01-25T08:55:27;7.70;99.90
31661;DHT22;18267;52.234;7.444;2024-01-25T08:57:53;7.80;99.90
31661;DHT22;18267;52.234;7.444;2024-01-25T09:00:19;7.70;99.90
31661;DHT22;18267;52.234;7.444;2024-01-25T09:02:44;7.70;99.90
31661;DHT22;18267;52.234;7.444;2024-01-25T09:05:11;7.70;99.90
31661;DHT22;18267;52.234;7.444;2024-01-25T09:07:37;7.70;99.90
31661;DHT22;18267;52.234;7.444;2024-01-25T09:10:03;7.60;99.90
31661;DHT22;18267;52.234;7.444;2024-01-25T09:12:30;7.60;99.90
31661;DHT22;18267;52.234;7.444;2024-01-25T09:14:55;7.70;99.90
31661;DHT22;18267;52.234;7.444;2024-01-25T09:17:21;7.70;99.90
31661;DHT22;18267;52.234;7.444;2024-01-25T09:19:50;7.70;99.90
31661;DHT22;18267;52.234;7.444;2024-01-25T09:22:19;7.70;99.90
31661;DHT22;18267;52.234;7.444;2024-01-25T09:24:45;7.70;99.90
31661;DHT22;18267;52.234;7.444;2024-01-25T09:27:11;7.80;99.90
31661;DHT22;18267;52.234;7.444;2024-01-25T09:29:38;7.80;99.90
31661;DHT22;18267;52.234;7.444;2024-01-25T09:32:06;7.70;99.90
31661;DHT22;18267;52.234;7.444;2024-01-25T09:34:32;7.80;99.90
31661;DHT22;18267;52.234;7.444;2024-01-25T09:36:57;7.90;99.90
31661;DHT22;18267;52.234;7.444;2024-01-25T09:39:23;7.90;99.90
31661;DHT22;18267;52.234;7.444;2024-01-25T09:41:49;7.80;99.90
31661;DHT22;18267;52.234;7.444;2024-01-25T09:44:14;7.80;99.90
31661;DHT22;18267;52.234;7.444;2024-01-25T09:46:41;7.80;99.90
31661;DHT22;18267;52.234;7.444;2024-01-25T09:49:07;7.80;99.90
31661;DHT22;18267;52.234;7.444;2024-01-25T09:51:38;7.90;99.90
31661;DHT22;18267;52.234;7.444;2024-01-25T09:54:08;8.00;99.90
31661;DHT22;18267;52.234;7.444;2024-01-25T09:56:34;8.00;99.90
31661;DHT22;18267;52.234;7.444;2024-01-25T09:59:01;7.80;99.90
31661;DHT22;18267;52.234;7.444;2024-01-25T10:01:27;7.90;99.90
31661;DHT22;18267;52.234;7.444;2024-01-25T10:03:53;7.90;99.90
31661;DHT22;18267;52.234;7.444;2024-01-25T10:06:21;8.10;99.90
31661;DHT22;18267;52.234;7.444;2024-01-25T10:08:48;8.20;99.90
31661;DHT22;18267;52.234;7.444;2024-01-25T10:11:13;8.30;99.90
31661;DHT22;18267;52.234;7.444;2024-01-25T10:13:43;8.20;99.90
31661;DHT22;18267;52.234;7.444;2024-01-25T10:16:16;8.30;99.90
31661;DHT22;18267;52.234;7.444;2024-01-25T10:18:42;8.30;99.90
31661;DHT22;18267;52.234;7.444;2024-01-25T10:21:10;8.30;99.90
31661;DHT22;18267;52.234;7.444;2024-01-25T10:23:36;8.30;99.90
31661;DHT22;18267;52.234;7.444;2024-01-25T10:26:02;8.50;99.90
31661;DHT22;18267;52.234;7.444;2024-01-25T10:28:28;8.50;99.90
31661;DHT22;18267;52.234;7.444;2024-01-25T10:31:00;8.60;99.90
31661;DHT22;18267;52.234;7.444;2024-01-25T10:33:27;8.60;99.90
31661;DHT22;18267;52.234;7.444;2024-01-25T10:35:54;8.60;99.90
31661;DHT22;18267;52.234;7.444;2024-01-25T10:38:21;8.70;99.90
31661;DHT22;18267;52.234;7.444;2024-01-25T10:40:47;8.80;99.90
31661;DHT22;18267;52.234;7.444;2024-01-25T10:43:13;8.90;99.90
31661;DHT22;18267;52.234;7.444;2024-01-25T10:45:39;8.90;99.90
31661;DHT22;18267;52.234;7.444;2024-01-25T10:48:05;8.90;99.90
31661;DHT22;18267;52.234;7.444;2024-01-25T10:50:32;9.00;99.90
31661;DHT22;18267;52.234;7.444;2024-01-25T10:52:58;9.00;99.90
31661;DHT22;18267;52.234;7.444;2024-01-25T10:55:24;9.00;99.90
31661;DHT22;18267;52.234;7.444;2024-01-25T10:57:51;9.10;99.90
31661;DHT22;18267;52.234;7.444;2024-01-25T11:00:17;9.20;99.90
31661;DHT22;18267;52.234;7.444;2024-01-25T11:02:44;9.20;99.90
31661;DHT22;18267;52.234;7.444;2024-01-25T11:05:14;9.20;99.90
31661;DHT22;18267;52.234;7.444;2024-01-25T11:07:45;9.20;99.90
31661;DHT22;18267;52.234;7.444;2024-01-25T11:13:00;9.00;99.90
31661;DHT22;18267;52.234;7.444;2024-01-25T11:15:36;9.20;99.90
31661;DHT22;18267;52.234;7.444;2024-01-25T11:18:03;9.30;99.90
31661;DHT22;18267;52.234;7.444;2024-01-25T11:20:31;9.20;99.90
31661;DHT22;18267;52.234;7.444;2024-01-25T11:22:58;9.20;99.90
31661;DHT22;18267;52.234;7.444;2024-01-25T11:25:27;9.20;99.90
31661;DHT22;18267;52.234;7.444;2024-01-25T11:27:54;9.20;99.90
31661;DHT22;18267;52.234;7.444;2024-01-25T11:30:20;9.20;99.90
31661;DHT22;18267;52.234;7.444;2024-01-25T11:32:46;9.20;99.90
31661;DHT22;18267;52.234;7.444;2024-01-25T11:35:13;9.20;99.90
31661;DHT22;18267;52.234;7.444;2024-01-25T11:37:45;9.20;99.90
31661;DHT22;18267;52.234;7.444;2024-01-25T11:40:11;9.10;99.90
31661;DHT22;18267;52.234;7.444;2024-01-25T11:42:59;9.00;99.90
31661;DHT22;18267;52.234;7.444;2024-01-25T11:45:24;9.00;99.90
31661;DHT22;18267;52.234;7.444;2024-01-25T11:47:49;8.80;99.90
31661;DHT22;18267;52.234;7.444;2024-01-25T11:50:15;8.90;99.90
31661;DHT22;18267;52.234;7.444;2024-01-25T11:52:41;8.90;99.90
31661;DHT22;18267;52.234;7.444;2024-01-25T11:55:08;8.90;99.90
31661;DHT22;18267;52.234;7.444;2024-01-25T11:57:40;8.90;99.90
31661;DHT22;18267;52.234;7.444;2024-01-25T12:00:08;8.90;99.90
31661;DHT22;18267;52.234;7.444;2024-01-25T12:02:36;8.70;99.90
31661;DHT22;18267;52.234;7.444;2024-01-25T12:05:02;8.80;99.90
31661;DHT22;18267;52.234;7.444;2024-01-25T12:07:30;8.90;99.90
31661;DHT22;18267;52.234;7.444;2024-01-25T12:10:04;8.80;99.90
31661;DHT22;18267;52.234;7.444;2024-01-25T12:12:30;8.90;99.90
31661;DHT22;18267;52.234;7.444;2024-01-25T12:14:59;8.90;99.90
31661;DHT22;18267;52.234;7.444;2024-01-25T12:17:28;8.90;99.90
31661;DHT22;18267;52.234;7.444;2024-01-25T12:19:58;8.90;99.90
31661;DHT22;18267;52.234;7.444;2024-01-25T12:22:27;9.00;99.90
31661;DHT22;18267;52.234;7.444;2024-01-25T12:24:54;9.00;99.90
31661;DHT22;18267;52.234;7.444;2024-01-25T12:27:24;9.10;99.90
31661;DHT22;18267;52.234;7.444;2024-01-25T12:29:50;9.00;99.90
31661;DHT22;18267;52.234;7.444;2024-01-25T12:32:16;9.10;99.90
31661;DHT22;18267;52.234;7.444;2024-01-25T12:34:42;9.10;99.90
31661;DHT22;18267;52.234;7.444;2024-01-25T12:37:09;9.20;99.90
31661;DHT22;18267;52.234;7.444;2024-01-25T12:39:34;9.30;99.90
31661;DHT22;18267;52.234;7.444;2024-01-25T12:42:00;9.50;99.90
31661;DHT22;18267;52.234;7.444;2024-01-25T12:44:26;9.70;99.90
31661;DHT22;18267;52.234;7.444;2024-01-25T12:46:51;9.70;99.90
31661;DHT22;18267;52.234;7.444;2024-01-25T12:49:17;9.80;99.90
31661;DHT22;18267;52.234;7.444;2024-01-25T12:51:43;9.80;99.90
31661;DHT22;18267;52.234;7.444;2024-01-25T12:54:09;9.80;99.90
31661;DHT22;18267;52.234;7.444;2024-01-25T12:56:35;9.90;99.90
31661;DHT22;18267;52.234;7.444;2024-01-25T12:59:00;9.90;99.90
31661;DHT22;18267;52.234;7.444;2024-01-25T13:01:26;9.80;99.90
31661;DHT22;18267;52.234;7.444;2024-01-25T13:03:52;9.80;99.90
31661;DHT22;18267;52.234;7.444;2024-01-25T13:06:18;9.80;99.90
31661;DHT22;18267;52.234;7.444;2024-01-25T13:08:43;9.90;99.90
31661;DHT22;18267;52.234;7.444;2024-01-25T13:11:09;9.90;99.90
31661;DHT22;18267;52.234;7.444;2024-01-25T13:13:34;9.90;99.90
31661;DHT22;18267;52.234;7.444;2024-01-25T13:16:00;9.80;99.90
31661;DHT22;18267;52.234;7.444;2024-01-25T13:18:25;9.90;99.90
31661;DHT22;18267;52.234;7.444;2024-01-25T13:20:51;9.80;99.90
31661;DHT22;18267;52.234;7.444;2024-01-25T13:23:17;9.70;99.90
31661;DHT22;18267;52.234;7.444;2024-01-25T13:25:42;9.80;99.90
31661;DHT22;18267;52.234;7.444;2024-01-25T13:28:07;9.80;99.90
31661;DHT22;18267;52.234;7.444;2024-01-25T13:30:33;9.70;99.90
31661;DHT22;18267;52.234;7.444;2024-01-25T13:32:59;9.70;99.90
31661;DHT22;18267;52.234;7.444;2024-01-25T13:35:24;9.60;99.90
31661;DHT22;18267;52.234;7.444;2024-01-25T13:37:50;9.70;99.90
31661;DHT22;18267;52.234;7.444;2024-01-25T13:40:15;9.70;99.90
31661;DHT22;18267;52.234;7.444;2024-01-25T13:42:41;9.80;99.90
31661;DHT22;18267;52.234;7.444;2024-01-25T13:45:07;9.80;99.90
31661;DHT22;18267;52.234;7.444;2024-01-25T13:47:32;9.80;99.90
31661;DHT22;18267;52.234;7.444;2024-01-25T13:49:58;9.80;99.90
31661;DHT22;18267;52.234;7.444;2024-01-25T13:52:24;9.80;99.90
31661;DHT22;18267;52.234;7.444;2024-01-25T13:54:49;9.90;99.90
31661;DHT22;18267;52.234;7.444;2024-01-25T13:57:15;9.80;99.90
31661;DHT22;18267;52.234;7.444;2024-01-25T13:59:41;9.70;99.90
31661;DHT22;18267;52.234;7.444;2024-01-25T14:02:06;9.60;99.90
31661;DHT22;18267;52.234;7.444;2024-01-25T14:04:32;9.60;99.90
31661;DHT22;18267;52.234;7.444;2024-01-25T14:06:57;9.60;99.90
31661;DHT22;18267;52.234;7.444;2024-01-25T14:09:23;9.60;99.90
31661;DHT22;18267;52.234;7.444;2024-01-25T14:11:48;9.60;99.90
31661;DHT22;18267;52.234;7.444;2024-01-25T14:14:14;9.50;99.90
31661;DHT22;18267;52.234;7.444;2024-01-25T14:16:39;9.60;99.90
31661;DHT22;18267;52.234;7.444;2024-01-25T14:19:05;9.60;99.90
31661;DHT22;18267;52.234;7.444;2024-01-25T14:21:33;9.60;99.90
31661;DHT22;18267;52.234;7.444;2024-01-25T14:23:59;9.50;99.90
31661;DHT22;18267;52.234;7.444;2024-01-25T14:26:24;9.50;99.90
31661;DHT22;18267;52.234;7.444;2024-01-25T14:28:50;9.50;99.90
31661;DHT22;18267;52.234;7.444;2024-01-25T14:31:15;9.40;99.90
31661;DHT22;18267;52.234;7.444;2024-01-25T14:33:41;9.40;99.90
31661;DHT22;18267;52.234;7.444;2024-01-25T14:36:07;9.40;99.90
31661;DHT22;18267;52.234;7.444;2024-01-25T14:38:32;9.40;99.90
31661;DHT22;18267;52.234;7.444;2024-01-25T14:40:59;9.30;99.90
31661;DHT22;18267;52.234;7.444;2024-01-25T14:43:25;9.30;99.90
31661;DHT22;18267;52.234;7.444;2024-01-25T14:45:50;9.20;99.90
31661;DHT22;18267;52.234;7.444;2024-01-25T14:48:16;9.20;99.90
31661;DHT22;18267;52.234;7.444;2024-01-25T14:50:42;9.20;99.90
31661;DHT22;18267;52.234;7.444;2024-01-25T14:53:08;9.10;99.90
31661;DHT22;18267;52.234;7.444;2024-01-25T14:55:33;9.00;99.90
31661;DHT22;18267;52.234;7.444;2024-01-25T14:57:59;9.00;99.90
31661;DHT22;18267;52.234;7.444;2024-01-25T15:00:24;8.90;99.90
31661;DHT22;18267;52.234;7.444;2024-01-25T15:02:50;8.90;99.90
31661;DHT22;18267;52.234;7.444;2024-01-25T15:05:16;8.90;99.90
31661;DHT22;18267;52.234;7.444;2024-01-25T15:07:41;8.90;99.90
31661;DHT22;18267;52.234;7.444;2024-01-25T15:10:08;8.80;99.90
31661;DHT22;18267;52.234;7.444;2024-01-25T15:12:34;8.80;99.90
31661;DHT22;18267;52.234;7.444;2024-01-25T15:15:00;8.80;99.90
31661;DHT22;18267;52.234;7.444;2024-01-25T15:17:25;8.80;99.90
31661;DHT22;18267;52.234;7.444;2024-01-25T15:19:51;8.80;99.90
31661;DHT22;18267;52.234;7.444;2024-01-25T15:22:16;8.70;99.90
31661;DHT22;18267;52.234;7.444;2024-01-25T15:24:42;8.70;99.90
31661;DHT22;18267;52.234;7.444;2024-01-25T15:27:07;8.70;99.90
31661;DHT22;18267;52.234;7.444;2024-01-25T15:29:33;8.60;99.90
31661;DHT22;18267;52.234;7.444;2024-01-25T15:31:59;8.60;99.90
31661;DHT22;18267;52.234;7.444;2024-01-25T15:34:24;8.50;99.90
31661;DHT22;18267;52.234;7.444;2024-01-25T15:36:50;8.50;99.90
31661;DHT22;18267;52.234;7.444;2024-01-25T15:39:16;8.50;99.90